createdAt,value
2018-04-09T00:00:10.934Z,22.45
2018-04-09T00:01:13.433Z,20.77
2018-04-09T00:02:15.950Z,19.20
2018-04-09T00:03:18.443Z,21.80
2018-04-09T00:04:20.926Z,26.10
2018-04-09T00:05:23.432Z,22.13
2018-04-09T00:06:25.916Z,22.08
2018-04-09T00:07:29.198Z,18.73
2018-04-09T00:08:32.482Z,27.25
2018-04-09T00:09:34.986Z,26.48
2018-04-09T00:10:37.505Z,24.00
2018-04-09T00:11:40.008Z,27.15
2018-04-09T00:12:43.272Z,19.62
2018-04-09T00:13:45.776Z,22.42
2018-04-09T00:14:49.066Z,37.00
2018-04-09T00:15:51.568Z,17.73
2018-04-09T00:16:54.088Z,23.10
2018-04-09T00:17:57.338Z,24.70
2018-04-09T00:18:59.833Z,27.58
2018-04-09T00:20:02.340Z,23.67
2018-04-09T00:21:04.835Z,19.83
2018-04-09T00:22:07.338Z,22.73
2018-04-09T00:23:09.822Z,17.92
2018-04-09T00:24:13.094Z,21.70
2018-04-09T00:25:15.609Z,27.85
2018-04-09T00:26:18.134Z,28.35
2018-04-09T00:27:20.655Z,17.52
2018-04-09T00:28:23.155Z,24.67
2018-04-09T00:29:25.637Z,21.87
2018-04-09T00:30:28.151Z,23.23
2018-04-09T00:31:31.430Z,22.17
2018-04-09T00:32:34.713Z,24.58
2018-04-09T00:33:37.216Z,20.55
2018-04-09T00:34:39.737Z,26.12
2018-04-09T00:35:42.244Z,25.08
2018-04-09T00:36:44.770Z,23.80
2018-04-09T00:37:47.264Z,22.48
2018-04-09T00:38:49.759Z,26.70
2018-04-09T00:39:52.250Z,24.10
2018-04-09T00:40:54.743Z,31.33
2018-04-09T00:41:57.269Z,25.55
2018-04-09T00:42:59.765Z,26.12
2018-04-09T00:44:02.259Z,37.05
2018-04-09T00:45:04.770Z,20.00
2018-04-09T00:46:08.070Z,23.40
2018-04-09T00:47:10.612Z,17.52
2018-04-09T00:48:13.127Z,23.65
2018-04-09T00:49:15.631Z,23.23
2018-04-09T00:50:18.125Z,29.25
2018-04-09T00:51:21.387Z,27.60
2018-04-09T00:52:23.880Z,23.17
2018-04-09T00:53:39.215Z,23.00
2018-04-09T00:54:41.733Z,25.95
2018-04-09T00:55:45.014Z,16.85
2018-04-09T00:56:47.499Z,21.65
2018-04-09T00:57:50.766Z,22.13
2018-04-09T00:58:53.263Z,21.80
2018-04-09T00:59:56.528Z,23.52
2018-04-09T01:00:59.783Z,27.10
2018-04-09T01:02:02.304Z,18.50
2018-04-09T01:03:05.585Z,18.62
2018-04-09T01:04:08.846Z,25.73
2018-04-09T01:05:11.346Z,26.98
2018-04-09T01:06:14.608Z,19.75
2018-04-09T01:07:18.623Z,18.98
2018-04-09T01:08:21.145Z,19.33
2018-04-09T01:09:23.638Z,23.12
2018-04-09T01:10:26.129Z,22.23
2018-04-09T01:11:28.649Z,28.65
2018-04-09T01:12:31.150Z,26.48
2018-04-09T01:13:33.651Z,33.45
2018-04-09T01:14:36.139Z,20.73
2018-04-09T01:15:39.418Z,21.55
2018-04-09T01:16:42.679Z,23.58
2018-04-09T01:17:45.171Z,17.95
2018-04-09T01:18:48.447Z,21.58
2018-04-09T01:19:50.930Z,24.37
2018-04-09T01:20:54.195Z,30.48
2018-04-09T01:21:57.532Z,21.52
2018-04-09T01:23:00.030Z,24.37
2018-04-09T01:24:02.553Z,18.15
2018-04-09T01:25:05.817Z,25.83
2018-04-09T01:26:08.305Z,17.60
2018-04-09T01:27:11.678Z,26.23
2018-04-09T01:28:14.189Z,20.80
2018-04-09T01:29:16.711Z,20.35
2018-04-09T01:30:19.193Z,29.48
2018-04-09T01:31:22.457Z,25.25
2018-04-09T01:32:24.944Z,21.05
2018-04-09T01:33:27.438Z,20.92
2018-04-09T01:34:30.722Z,21.05
2018-04-09T01:35:33.977Z,27.77
2018-04-09T01:36:36.466Z,23.73
2018-04-09T01:37:38.986Z,20.65
2018-04-09T01:38:41.477Z,26.52
2018-04-09T01:39:43.992Z,26.83
2018-04-09T01:40:46.492Z,26.27
2018-04-09T01:41:49.002Z,21.65
2018-04-09T01:42:51.502Z,23.70
2018-04-09T01:43:54.758Z,20.52
2018-04-09T01:44:57.281Z,27.30
2018-04-09T01:45:59.771Z,25.77
2018-04-09T01:47:02.263Z,22.30
2018-04-09T01:48:04.763Z,27.85
2018-04-09T01:49:07.254Z,29.50
2018-04-09T01:50:10.652Z,21.92
2018-04-09T01:51:13.163Z,25.73
2018-04-09T01:52:15.683Z,29.83
2018-04-09T01:53:18.965Z,35.80
2018-04-09T01:54:22.217Z,29.27
2018-04-09T01:55:24.718Z,27.80
2018-04-09T01:56:27.216Z,21.23
2018-04-09T01:57:29.703Z,21.30
2018-04-09T01:58:32.196Z,25.88
2018-04-09T01:59:34.727Z,23.80
2018-04-09T02:00:37.231Z,24.67
2018-04-09T02:01:39.734Z,22.65
2018-04-09T02:02:42.224Z,23.30
2018-04-09T02:03:45.693Z,19.00
2018-04-09T02:04:48.193Z,27.92
2018-04-09T02:05:50.725Z,29.63
2018-04-09T02:06:53.223Z,25.85
2018-04-09T02:07:56.481Z,23.90
2018-04-09T02:08:58.982Z,26.98
2018-04-09T02:10:02.260Z,19.92
2018-04-09T02:11:04.771Z,28.52
2018-04-09T02:12:07.292Z,29.83
2018-04-09T02:13:09.787Z,29.80
2018-04-09T02:14:13.060Z,24.05
2018-04-09T02:15:15.552Z,26.73
2018-04-09T02:16:18.216Z,27.85
2018-04-09T02:17:21.481Z,24.15
2018-04-09T02:18:23.989Z,25.48
2018-04-09T02:19:26.483Z,27.25
2018-04-09T02:20:28.968Z,27.77
2018-04-09T02:21:31.484Z,22.25
2018-04-09T02:22:34.757Z,24.55
2018-04-09T02:23:37.255Z,23.08
2018-04-09T02:24:39.802Z,24.17
2018-04-09T02:25:43.063Z,34.72
2018-04-09T02:26:45.558Z,27.67
2018-04-09T02:27:48.053Z,31.85
2018-04-09T02:28:50.557Z,25.55
2018-04-09T02:29:53.042Z,23.02
2018-04-09T02:30:55.563Z,27.40
2018-04-09T02:31:58.074Z,36.10
2018-04-09T02:33:00.584Z,26.05
2018-04-09T02:34:03.846Z,32.33
2018-04-09T02:35:06.348Z,24.95
2018-04-09T02:36:09.648Z,33.72
2018-04-09T02:37:12.143Z,26.48
2018-04-09T02:38:14.642Z,25.20
2018-04-09T02:39:17.142Z,29.65
2018-04-09T02:40:20.394Z,23.45
2018-04-09T02:41:22.921Z,23.92
2018-04-09T02:42:25.444Z,23.92
2018-04-09T02:43:27.940Z,27.95
2018-04-09T02:44:31.199Z,27.30
2018-04-09T02:45:33.708Z,25.70
2018-04-09T02:46:36.970Z,18.02
2018-04-09T02:47:39.502Z,26.00
2018-04-09T02:48:41.994Z,26.50
2018-04-09T02:49:44.500Z,24.98
2018-04-09T02:50:47.776Z,22.35
2018-04-09T02:51:50.269Z,24.00
2018-04-09T02:52:53.539Z,29.58
2018-04-09T02:53:56.034Z,26.77
2018-04-09T02:54:59.289Z,25.55
2018-04-09T02:56:01.787Z,26.55
2018-04-09T02:57:05.061Z,32.80
2018-04-09T02:58:08.344Z,21.77
2018-04-09T02:59:11.617Z,30.12
2018-04-09T03:00:14.108Z,23.65
2018-04-09T03:01:17.380Z,24.45
2018-04-09T03:02:20.659Z,26.20
2018-04-09T03:03:23.163Z,24.83
2018-04-09T03:04:26.468Z,28.45
2018-04-09T03:05:28.967Z,31.52
2018-04-09T03:06:31.463Z,24.52
2018-04-09T03:07:34.719Z,25.98
2018-04-09T03:08:37.236Z,23.25
2018-04-09T03:09:39.735Z,25.90
2018-04-09T03:10:42.306Z,28.40
2018-04-09T03:11:44.814Z,28.92
2018-04-09T03:12:47.305Z,25.62
2018-04-09T03:13:49.797Z,25.80
2018-04-09T03:14:53.102Z,26.35
2018-04-09T03:15:55.593Z,27.75
2018-04-09T03:16:58.099Z,21.80
2018-04-09T03:18:00.611Z,21.48
2018-04-09T03:19:03.862Z,27.13
2018-04-09T03:20:06.384Z,30.15
2018-04-09T03:21:08.881Z,24.23
2018-04-09T03:22:11.380Z,25.75
2018-04-09T03:23:13.880Z,23.50
2018-04-09T03:24:16.429Z,21.40
2018-04-09T03:25:19.709Z,26.02
2018-04-09T03:26:22.202Z,27.42
2018-04-09T03:27:25.457Z,25.52
2018-04-09T03:28:27.962Z,32.85
2018-04-09T03:29:31.212Z,32.83
2018-04-09T03:30:34.500Z,26.00
2018-04-09T03:31:37.003Z,28.15
2018-04-09T03:32:40.273Z,24.73
2018-04-09T03:33:43.536Z,23.85
2018-04-09T03:34:46.038Z,35.65
2018-04-09T03:35:49.354Z,28.85
2018-04-09T03:36:51.837Z,25.67
2018-04-09T03:37:54.330Z,20.33
2018-04-09T03:38:56.830Z,27.55
2018-04-09T03:39:59.333Z,26.52
2018-04-09T03:41:01.865Z,28.30
2018-04-09T03:42:04.486Z,24.20
2018-04-09T03:43:06.976Z,27.13
2018-04-09T03:44:09.479Z,26.05
2018-04-09T03:45:11.987Z,25.48
2018-04-09T03:46:14.561Z,23.17
2018-04-09T03:47:17.056Z,29.08
2018-04-09T03:48:19.549Z,37.88
2018-04-09T03:49:22.070Z,25.80
2018-04-09T03:50:24.551Z,26.50
2018-04-09T03:51:27.076Z,23.45
2018-04-09T03:52:29.751Z,31.62
2018-04-09T03:53:33.018Z,35.00
2018-04-09T03:54:35.502Z,24.20
2018-04-09T03:55:38.001Z,24.35
2018-04-09T03:56:41.264Z,25.20
2018-04-09T03:57:45.264Z,26.95
2018-04-09T03:58:47.757Z,28.92
2018-04-09T03:59:51.028Z,25.42
2018-04-09T04:00:53.517Z,26.52
2018-04-09T04:01:56.797Z,32.80
2018-04-09T04:02:59.286Z,23.30
2018-04-09T04:04:02.543Z,28.87
2018-04-09T04:05:05.053Z,37.75
2018-04-09T04:06:07.543Z,28.10
2018-04-09T04:07:10.221Z,34.05
2018-04-09T04:08:12.717Z,32.33
2018-04-09T04:09:15.972Z,32.83
2018-04-09T04:10:18.476Z,38.88
2018-04-09T04:11:20.970Z,37.25
2018-04-09T04:12:24.244Z,29.70
2018-04-09T04:13:27.504Z,22.00
2018-04-09T04:14:30.021Z,30.25
2018-04-09T04:15:44.342Z,26.85
2018-04-09T04:16:58.739Z,29.55
2018-04-09T04:18:13.034Z,31.58
2018-04-09T04:19:27.560Z,38.50
2018-04-09T04:20:42.016Z,26.45
2018-04-09T04:21:45.462Z,29.95
2018-04-09T04:22:48.768Z,31.40
2018-04-09T04:23:51.272Z,30.40
2018-04-09T04:24:53.791Z,29.77
2018-04-09T04:25:57.098Z,34.22
2018-04-09T04:26:59.586Z,31.98
2018-04-09T04:28:02.089Z,35.38
2018-04-09T04:29:04.585Z,32.13
2018-04-09T04:30:07.837Z,27.77
2018-04-09T04:31:10.456Z,26.30
2018-04-09T04:32:12.935Z,27.98
2018-04-09T04:33:15.451Z,30.95
2018-04-09T04:34:17.977Z,33.35
2018-04-09T04:35:20.469Z,32.15
2018-04-09T04:36:22.957Z,30.98
2018-04-09T04:37:25.474Z,27.30
2018-04-09T04:38:28.781Z,30.30
2018-04-09T04:39:31.286Z,39.05
2018-04-09T04:40:33.819Z,29.60
2018-04-09T04:41:36.315Z,30.20
2018-04-09T04:42:38.813Z,37.53
2018-04-09T04:43:41.307Z,37.13
2018-04-09T04:44:44.573Z,29.52
2018-04-09T04:45:47.070Z,34.40
2018-04-09T04:46:50.330Z,38.05
2018-04-09T04:47:52.836Z,33.88
2018-04-09T04:48:55.358Z,42.22
2018-04-09T04:49:58.714Z,31.33
2018-04-09T04:51:01.277Z,33.30
2018-04-09T04:52:03.778Z,31.83
2018-04-09T04:53:06.283Z,33.90
2018-04-09T04:54:08.789Z,35.80
2018-04-09T04:55:11.352Z,34.13
2018-04-09T04:56:13.885Z,34.03
2018-04-09T04:57:16.370Z,33.95
2018-04-09T04:58:18.858Z,32.50
2018-04-09T04:59:21.758Z,37.55
2018-04-09T05:00:24.281Z,35.33
2018-04-09T05:01:26.795Z,41.65
2018-04-09T05:02:29.291Z,32.28
2018-04-09T05:03:31.799Z,24.95
2018-04-09T05:04:34.303Z,29.02
2018-04-09T05:05:36.793Z,36.45
2018-04-09T05:06:39.296Z,33.08
2018-04-09T05:07:41.811Z,28.70
2018-04-09T05:08:44.317Z,33.03
2018-04-09T05:09:46.824Z,35.08
2018-04-09T05:10:50.091Z,33.63
2018-04-09T05:11:52.582Z,36.30
2018-04-09T05:12:55.903Z,33.63
2018-04-09T05:13:58.404Z,32.40
2018-04-09T05:15:00.909Z,38.95
2018-04-09T05:16:03.403Z,35.58
2018-04-09T05:17:05.896Z,33.72
2018-04-09T05:18:08.406Z,31.17
2018-04-09T05:19:10.904Z,30.45
2018-04-09T05:20:14.208Z,48.15
2018-04-09T05:21:16.722Z,45.17
2018-04-09T05:22:19.214Z,37.60
2018-04-09T05:23:21.703Z,34.28
2018-04-09T05:24:24.962Z,35.65
2018-04-09T05:25:28.968Z,34.10
2018-04-09T05:26:31.479Z,39.67
2018-04-09T05:27:34.055Z,43.17
2018-04-09T05:28:36.594Z,38.78
2018-04-09T05:29:39.872Z,45.60
2018-04-09T05:30:42.371Z,42.47
2018-04-09T05:31:45.638Z,35.25
2018-04-09T05:32:48.244Z,36.47
2018-04-09T05:33:50.747Z,37.70
2018-04-09T05:34:53.234Z,40.15
2018-04-09T05:35:55.739Z,38.13
2018-04-09T05:36:59.033Z,35.78
2018-04-09T05:38:01.525Z,35.20
2018-04-09T05:39:04.016Z,37.40
2018-04-09T05:40:06.534Z,31.27
2018-04-09T05:41:09.979Z,38.92
2018-04-09T05:42:12.500Z,26.83
2018-04-09T05:43:15.804Z,34.03
2018-04-09T05:44:18.314Z,30.15
2018-04-09T05:45:20.838Z,28.02
2018-04-09T05:46:23.369Z,32.58
2018-04-09T05:47:25.869Z,41.58
2018-04-09T05:48:29.179Z,31.67
2018-04-09T05:49:31.703Z,24.58
2018-04-09T05:50:34.205Z,25.52
2018-04-09T05:51:37.489Z,30.60
2018-04-09T05:52:40.749Z,33.90
2018-04-09T05:53:43.257Z,30.23
2018-04-09T05:54:45.751Z,28.52
2018-04-09T05:55:48.240Z,30.77
2018-04-09T05:56:50.752Z,31.55
2018-04-09T05:57:54.019Z,36.13
2018-04-09T05:58:56.529Z,33.28
2018-04-09T05:59:59.031Z,33.65
2018-04-09T06:01:01.568Z,34.58
2018-04-09T06:02:04.061Z,35.20
2018-04-09T06:03:06.564Z,36.30
2018-04-09T06:04:09.047Z,27.65
2018-04-09T06:05:11.578Z,35.33
2018-04-09T06:06:14.075Z,42.83
2018-04-09T06:07:16.577Z,28.25
2018-04-09T06:08:19.856Z,32.60
2018-04-09T06:09:23.109Z,46.28
2018-04-09T06:10:25.660Z,37.28
2018-04-09T06:11:28.170Z,33.95
2018-04-09T06:12:30.686Z,38.60
2018-04-09T06:13:33.181Z,38.60
2018-04-09T06:14:35.674Z,45.08
2018-04-09T06:15:38.577Z,29.37
2018-04-09T06:16:41.830Z,30.50
2018-04-09T06:17:44.319Z,28.12
2018-04-09T06:18:46.823Z,31.30
2018-04-09T06:19:49.338Z,30.60
2018-04-09T06:20:51.875Z,31.45
2018-04-09T06:21:54.391Z,30.08
2018-04-09T06:22:56.911Z,25.00
2018-04-09T06:23:59.432Z,29.45
2018-04-09T06:25:02.082Z,30.00
2018-04-09T06:26:04.627Z,24.45
2018-04-09T06:27:07.119Z,29.05
2018-04-09T06:28:09.642Z,28.62
2018-04-09T06:29:12.924Z,39.22
2018-04-09T06:30:16.184Z,31.73
2018-04-09T06:31:18.782Z,33.90
2018-04-09T06:32:22.059Z,27.62
2018-04-09T06:33:24.599Z,27.03
2018-04-09T06:34:27.100Z,34.50
2018-04-09T06:35:29.597Z,42.90
2018-04-09T06:36:32.860Z,29.57
2018-04-09T06:37:36.883Z,30.77
2018-04-09T06:38:40.167Z,26.77
2018-04-09T06:39:42.674Z,29.80
2018-04-09T06:40:45.184Z,28.97
2018-04-09T06:41:47.683Z,30.70
2018-04-09T06:42:50.998Z,32.23
2018-04-09T06:43:53.518Z,28.77
2018-04-09T06:44:56.038Z,30.47
2018-04-09T06:45:58.530Z,31.20
2018-04-09T06:47:01.030Z,32.60
2018-04-09T06:48:03.528Z,32.27
2018-04-09T06:49:06.808Z,36.47
2018-04-09T06:50:09.298Z,35.03
2018-04-09T06:51:12.664Z,33.23
2018-04-09T06:52:15.940Z,32.25
2018-04-09T06:53:18.443Z,34.60
2018-04-09T06:54:20.966Z,43.53
2018-04-09T06:55:23.457Z,50.80
2018-04-09T06:56:25.978Z,38.17
2018-04-09T06:57:28.646Z,42.78
2018-04-09T06:58:31.147Z,39.58
2018-04-09T06:59:33.647Z,38.40
2018-04-09T07:00:36.166Z,38.75
2018-04-09T07:01:38.673Z,32.97
2018-04-09T07:02:41.158Z,41.88
2018-04-09T07:03:43.702Z,43.92
2018-04-09T07:04:46.209Z,42.17
2018-04-09T07:05:49.482Z,52.55
2018-04-09T07:06:52.091Z,43.75
2018-04-09T07:07:54.587Z,42.40
2018-04-09T07:08:57.135Z,42.83
2018-04-09T07:10:00.378Z,44.75
2018-04-09T07:11:02.887Z,46.75
2018-04-09T07:12:05.399Z,48.47
2018-04-09T07:13:07.934Z,41.58
2018-04-09T07:14:10.738Z,40.45
2018-04-09T07:15:13.312Z,44.17
2018-04-09T07:16:15.827Z,42.97
2018-04-09T07:17:19.114Z,45.30
2018-04-09T07:18:21.606Z,48.92
2018-04-09T07:19:24.183Z,47.65
2018-04-09T07:20:26.706Z,51.45
2018-04-09T07:21:29.233Z,46.28
2018-04-09T07:22:31.726Z,44.45
2018-04-09T07:23:34.231Z,40.20
2018-04-09T07:24:36.750Z,41.33
2018-04-09T07:25:39.242Z,35.80
2018-04-09T07:26:41.877Z,37.33
2018-04-09T07:27:44.391Z,38.42
2018-04-09T07:28:46.925Z,38.75
2018-04-09T07:29:49.429Z,37.60
2018-04-09T07:30:51.927Z,33.78
2018-04-09T07:31:54.429Z,32.83
2018-04-09T07:32:56.916Z,30.62
2018-04-09T07:33:59.423Z,35.92
2018-04-09T07:35:01.935Z,33.53
2018-04-09T07:36:04.466Z,38.10
2018-04-09T07:37:06.957Z,39.88
2018-04-09T07:38:10.283Z,31.60
2018-04-09T07:39:12.886Z,49.00
2018-04-09T07:40:15.382Z,39.30
2018-04-09T07:41:17.900Z,31.05
2018-04-09T07:42:20.435Z,37.88
2018-04-09T07:43:23.701Z,31.60
2018-04-09T07:44:26.327Z,32.47
2018-04-09T07:45:28.843Z,30.48
2018-04-09T07:46:31.356Z,40.95
2018-04-09T07:47:33.876Z,30.95
2018-04-09T07:48:36.503Z,35.58
2018-04-09T07:49:38.992Z,31.70
2018-04-09T07:50:41.493Z,32.85
2018-04-09T07:51:44.061Z,31.90
2018-04-09T07:52:46.586Z,40.60
2018-04-09T07:53:49.074Z,31.95
2018-04-09T07:54:51.598Z,43.22
2018-04-09T07:55:54.864Z,42.62
2018-04-09T07:56:58.136Z,33.13
2018-04-09T07:58:00.649Z,45.28
2018-04-09T07:59:03.922Z,34.75
2018-04-09T08:00:06.426Z,50.35
2018-04-09T08:01:08.930Z,37.22
2018-04-09T08:02:11.559Z,37.58
2018-04-09T08:03:14.078Z,39.60
2018-04-09T08:04:16.588Z,40.42
2018-04-09T08:05:19.865Z,40.72
2018-04-09T08:06:22.423Z,48.55
2018-04-09T08:07:25.046Z,39.55
2018-04-09T08:08:27.590Z,37.95
2018-04-09T08:09:30.087Z,43.97
2018-04-09T08:10:32.590Z,42.40
2018-04-09T08:11:35.105Z,44.25
2018-04-09T08:12:38.385Z,37.70
2018-04-09T08:13:40.896Z,45.70
2018-04-09T08:14:43.396Z,39.10
2018-04-09T08:15:45.895Z,40.00
2018-04-09T08:16:48.385Z,42.58
2018-04-09T08:17:51.668Z,51.22
2018-04-09T08:18:54.953Z,44.15
2018-04-09T08:19:58.259Z,41.03
2018-04-09T08:21:01.520Z,40.72
2018-04-09T08:22:04.019Z,50.45
2018-04-09T08:23:06.522Z,52.22
2018-04-09T08:24:09.023Z,42.60
2018-04-09T08:25:11.606Z,46.17
2018-04-09T08:26:14.888Z,51.55
2018-04-09T08:27:17.400Z,38.83
2018-04-09T08:28:19.902Z,57.20
2018-04-09T08:29:22.930Z,46.37
2018-04-09T08:30:26.201Z,51.65
2018-04-09T08:31:28.698Z,45.63
2018-04-09T08:32:31.252Z,47.62
2018-04-09T08:33:34.539Z,54.85
2018-04-09T08:34:37.799Z,45.58
2018-04-09T08:35:40.318Z,45.15
2018-04-09T08:36:42.909Z,43.15
2018-04-09T08:37:45.465Z,52.30
2018-04-09T08:38:47.995Z,47.00
2018-04-09T08:39:50.488Z,43.15
2018-04-09T08:40:53.766Z,40.42
2018-04-09T08:41:57.070Z,41.47
2018-04-09T08:43:00.342Z,49.55
2018-04-09T08:44:03.625Z,49.08
2018-04-09T08:45:06.127Z,42.85
2018-04-09T08:46:08.626Z,44.67
2018-04-09T08:47:11.269Z,45.92
2018-04-09T08:48:13.814Z,49.47
2018-04-09T08:49:17.102Z,48.22
2018-04-09T08:50:20.384Z,50.15
2018-04-09T08:51:22.885Z,45.67
2018-04-09T08:52:26.171Z,48.03
2018-04-09T08:53:29.421Z,44.10
2018-04-09T08:54:31.937Z,43.20
2018-04-09T08:55:34.461Z,41.08
2018-04-09T08:56:36.951Z,45.00
2018-04-09T08:57:40.218Z,47.72
2018-04-09T08:58:42.740Z,54.08
2018-04-09T08:59:45.253Z,43.40
2018-04-09T09:00:47.761Z,55.97
2018-04-09T09:01:51.036Z,48.67
2018-04-09T09:02:53.550Z,48.10
2018-04-09T09:03:56.057Z,48.45
2018-04-09T09:04:58.588Z,59.08
2018-04-09T09:06:01.099Z,46.25
2018-04-09T09:07:03.607Z,48.38
2018-04-09T09:08:06.922Z,47.17
2018-04-09T09:09:09.716Z,56.90
2018-04-09T09:10:12.489Z,51.53
2018-04-09T09:11:15.000Z,49.92
2018-04-09T09:12:18.285Z,63.33
2018-04-09T09:13:20.799Z,52.15
2018-04-09T09:14:23.300Z,46.42
2018-04-09T09:15:25.882Z,50.40
2018-04-09T09:16:28.364Z,50.53
2018-04-09T09:17:30.870Z,48.87
2018-04-09T09:18:33.388Z,60.55
2018-04-09T09:19:35.887Z,59.53
2018-04-09T09:20:39.194Z,46.78
2018-04-09T09:21:41.718Z,46.33
2018-04-09T09:22:45.156Z,59.20
2018-04-09T09:23:47.668Z,65.50
2018-04-09T09:24:50.187Z,60.25
2018-04-09T09:25:53.467Z,60.05
2018-04-09T09:26:56.738Z,58.87
2018-04-09T09:27:59.263Z,56.55
2018-04-09T09:29:01.787Z,54.55
2018-04-09T09:30:04.288Z,53.70
2018-04-09T09:31:06.803Z,60.00
2018-04-09T09:32:09.330Z,53.20
2018-04-09T09:33:12.137Z,57.33
2018-04-09T09:34:14.651Z,60.88
2018-04-09T09:35:17.196Z,65.32
2018-04-09T09:36:19.696Z,61.80
2018-04-09T09:37:22.206Z,61.80
2018-04-09T09:38:24.711Z,62.15
2018-04-09T09:39:28.749Z,59.35
2018-04-09T09:40:32.010Z,65.65
2018-04-09T09:41:34.631Z,63.08
2018-04-09T09:42:37.149Z,65.30
2018-04-09T09:43:39.657Z,58.72
2018-04-09T09:44:42.927Z,60.38
2018-04-09T09:45:45.464Z,62.35
2018-04-09T09:46:47.987Z,66.50
2018-04-09T09:47:51.270Z,60.28
2018-04-09T09:48:54.551Z,66.07
2018-04-09T09:49:58.075Z,73.12
2018-04-09T09:51:00.610Z,57.95
2018-04-09T09:52:03.929Z,59.30
2018-04-09T09:53:06.448Z,61.20
2018-04-09T09:54:08.969Z,68.85
2018-04-09T09:55:11.515Z,68.30
2018-04-09T09:56:14.042Z,68.15
2018-04-09T09:57:16.582Z,64.60
2018-04-09T09:58:19.093Z,63.70
2018-04-09T09:59:21.595Z,58.33
2018-04-09T10:00:29.681Z,70.60
2018-04-09T10:01:37.954Z,74.37
2018-04-09T10:02:46.068Z,62.45
2018-04-09T10:03:48.565Z,62.25
2018-04-09T10:04:51.085Z,72.62
2018-04-09T10:05:53.592Z,64.03
2018-04-09T10:06:56.108Z,64.37
2018-04-09T10:07:59.374Z,64.15
2018-04-09T10:09:01.876Z,64.55
2018-04-09T10:10:04.371Z,80.12
2018-04-09T10:11:06.927Z,64.35
2018-04-09T10:12:09.448Z,76.75
2018-04-09T10:13:12.084Z,59.67
2018-04-09T10:14:14.593Z,63.25
2018-04-09T10:15:17.087Z,66.53
2018-04-09T10:16:20.377Z,69.32
2018-04-09T10:17:23.678Z,69.75
2018-04-09T10:18:26.187Z,70.93
2018-04-09T10:19:28.703Z,58.60
2018-04-09T10:20:31.969Z,60.75
2018-04-09T10:21:34.506Z,59.53
2018-04-09T10:22:36.991Z,65.93
2018-04-09T10:23:39.475Z,59.15
2018-04-09T10:24:41.974Z,60.45
2018-04-09T10:25:45.262Z,64.45
2018-04-09T10:26:48.538Z,69.97
2018-04-09T10:27:51.029Z,57.45
2018-04-09T10:28:54.287Z,65.68
2018-04-09T10:29:56.812Z,66.03
2018-04-09T10:30:59.312Z,65.68
2018-04-09T10:32:01.836Z,66.57
2018-04-09T10:33:05.112Z,58.58
2018-04-09T10:34:08.389Z,66.00
2018-04-09T10:35:10.902Z,63.15
2018-04-09T10:36:13.430Z,61.78
2018-04-09T10:37:16.721Z,59.45
2018-04-09T10:38:20.008Z,63.38
2018-04-09T10:39:22.971Z,64.35
2018-04-09T10:40:25.487Z,65.87
2018-04-09T10:41:28.168Z,64.70
2018-04-09T10:42:30.703Z,61.13
2018-04-09T10:43:33.182Z,67.85
2018-04-09T10:44:36.435Z,57.58
2018-04-09T10:45:38.934Z,62.15
2018-04-09T10:46:42.252Z,60.95
2018-04-09T10:47:45.549Z,62.95
2018-04-09T10:48:48.049Z,68.72
2018-04-09T10:49:50.542Z,64.10
2018-04-09T10:50:53.047Z,63.30
2018-04-09T10:51:55.543Z,65.25
2018-04-09T10:52:58.049Z,70.35
2018-04-09T10:54:00.565Z,64.72
2018-04-09T10:55:03.064Z,63.40
2018-04-09T10:56:05.584Z,60.35
2018-04-09T10:57:08.844Z,58.75
2018-04-09T10:58:11.481Z,60.95
2018-04-09T10:59:14.004Z,69.87
2018-04-09T11:00:16.514Z,66.50
2018-04-09T11:01:19.010Z,62.62
2018-04-09T11:02:21.526Z,66.93
2018-04-09T11:03:24.926Z,67.40
2018-04-09T11:04:28.200Z,60.45
2018-04-09T11:05:31.478Z,61.22
2018-04-09T11:06:33.976Z,54.78
2018-04-09T11:07:36.490Z,57.13
2018-04-09T11:08:39.011Z,75.82
2018-04-09T11:09:42.312Z,67.62
2018-04-09T11:10:44.836Z,60.47
2018-04-09T11:11:47.350Z,63.50
2018-04-09T11:12:50.622Z,62.00
2018-04-09T11:13:53.930Z,60.78
2018-04-09T11:14:56.451Z,56.15
2018-04-09T11:15:59.001Z,65.15
2018-04-09T11:17:01.499Z,70.47
2018-04-09T11:18:04.785Z,68.53
2018-04-09T11:19:07.291Z,62.58
2018-04-09T11:20:09.850Z,58.80
2018-04-09T11:21:13.173Z,57.22
2018-04-09T11:22:15.678Z,57.95
2018-04-09T11:23:18.208Z,60.15
2018-04-09T11:24:20.726Z,65.70
2018-04-09T11:25:23.236Z,62.20
2018-04-09T11:26:25.781Z,63.97
2018-04-09T11:27:29.252Z,55.12
2018-04-09T11:28:31.768Z,60.28
2018-04-09T11:29:34.280Z,60.60
2018-04-09T11:30:36.801Z,62.42
2018-04-09T11:31:40.104Z,66.03
2018-04-09T11:32:42.621Z,59.95
2018-04-09T11:33:45.158Z,61.63
2018-04-09T11:34:47.686Z,66.80
2018-04-09T11:35:50.974Z,65.93
2018-04-09T11:36:53.486Z,65.32
2018-04-09T11:37:55.994Z,53.90
2018-04-09T11:38:58.645Z,57.40
2018-04-09T11:40:01.633Z,59.97
2018-04-09T11:41:04.152Z,60.20
2018-04-09T11:42:06.739Z,58.78
2018-04-09T11:43:09.249Z,60.55
2018-04-09T11:44:12.012Z,76.18
2018-04-09T11:45:14.515Z,65.95
2018-04-09T11:46:17.776Z,59.55
2018-04-09T11:47:20.878Z,64.78
2018-04-09T11:48:23.447Z,60.35
2018-04-09T11:49:26.706Z,63.22
2018-04-09T11:50:29.251Z,67.18
2018-04-09T11:51:31.754Z,63.03
2018-04-09T11:52:35.225Z,79.22
2018-04-09T11:53:44.878Z,63.95
2018-04-09T11:54:48.181Z,64.53
2018-04-09T11:55:50.707Z,60.53
2018-04-09T11:56:53.489Z,60.10
2018-04-09T11:58:58.643Z,63.70
2018-04-09T12:00:01.273Z,62.78
2018-04-09T12:01:03.857Z,58.10
2018-04-09T12:02:06.388Z,65.47
2018-04-09T12:03:08.896Z,61.78
2018-04-09T12:04:16.583Z,64.20
2018-04-09T12:05:19.113Z,59.35
2018-04-09T12:06:21.642Z,63.35
2018-04-09T12:07:24.182Z,62.55
2018-04-09T12:08:27.483Z,59.92
2018-04-09T12:09:30.029Z,56.90
2018-04-09T12:10:32.602Z,68.32
2018-04-09T12:11:35.145Z,64.70
2018-04-09T12:12:37.713Z,63.72
2018-04-09T12:13:40.274Z,67.10
2018-04-09T12:14:42.848Z,58.08
2018-04-09T12:15:45.449Z,58.58
2018-04-09T12:16:48.109Z,66.68
2018-04-09T12:17:50.611Z,62.83
2018-04-09T12:18:53.210Z,62.10
2018-04-09T12:19:56.736Z,64.05
2018-04-09T12:20:59.470Z,64.12
2018-04-09T12:22:02.032Z,60.88
2018-04-09T12:23:04.547Z,61.97
2018-04-09T12:24:07.063Z,62.53
2018-04-09T12:25:09.764Z,66.10
2018-04-09T12:26:12.538Z,62.75
2018-04-09T12:27:15.052Z,62.13
2018-04-09T12:28:17.889Z,61.88
2018-04-09T12:29:21.159Z,59.78
2018-04-09T12:30:23.789Z,58.75
2018-04-09T12:31:26.314Z,61.60
2018-04-09T12:32:28.851Z,61.50
2018-04-09T12:33:31.401Z,64.45
2018-04-09T12:34:33.963Z,61.65
2018-04-09T12:35:36.802Z,53.60
2018-04-09T12:36:39.355Z,60.83
2018-04-09T12:37:41.977Z,72.10
2018-04-09T12:38:45.772Z,63.95
2018-04-09T12:39:49.048Z,65.75
2018-04-09T12:40:52.360Z,62.40
2018-04-09T12:41:54.962Z,65.40
2018-04-09T12:42:57.465Z,59.22
2018-04-09T12:43:59.977Z,62.78
2018-04-09T12:45:02.824Z,64.97
2018-04-09T12:46:06.050Z,58.08
2018-04-09T12:47:08.811Z,63.58
2018-04-09T12:48:11.785Z,60.42
2018-04-09T12:49:19.510Z,58.05
2018-04-09T12:50:22.048Z,63.13
2018-04-09T12:51:25.000Z,55.90
2018-04-09T12:52:28.944Z,59.83
2018-04-09T12:53:31.473Z,61.67
2018-04-09T12:54:34.008Z,63.95
2018-04-09T12:55:36.521Z,62.55
2018-04-09T12:56:39.031Z,59.60
2018-04-09T12:57:41.530Z,57.80
2018-04-09T12:58:44.440Z,59.05
2018-04-09T12:59:46.992Z,58.45
2018-04-09T13:00:49.491Z,64.82
2018-04-09T13:01:52.089Z,65.43
2018-04-09T13:02:54.626Z,65.35
2018-04-09T13:03:57.121Z,64.87
2018-04-09T13:05:00.513Z,63.20
2018-04-09T13:06:03.056Z,66.70
2018-04-09T13:07:05.573Z,61.20
2018-04-09T13:08:08.088Z,62.35
2018-04-09T13:09:11.499Z,62.45
2018-04-09T13:10:14.227Z,65.45
2018-04-09T13:11:16.726Z,80.85
2018-04-09T13:12:20.137Z,61.85
2018-04-09T13:13:22.671Z,62.95
2018-04-09T13:14:25.187Z,64.75
2018-04-09T13:15:27.718Z,62.10
2018-04-09T13:16:30.288Z,60.17
2018-04-09T13:17:32.802Z,65.20
2018-04-09T13:18:35.304Z,57.67
2018-04-09T13:19:37.831Z,59.35
2018-04-09T13:20:40.386Z,59.88
2018-04-09T13:21:42.914Z,55.28
2018-04-09T13:22:45.441Z,65.45
2018-04-09T13:23:47.960Z,59.15
2018-04-09T13:24:50.480Z,56.22
2018-04-09T13:25:52.991Z,60.60
2018-04-09T13:26:55.515Z,65.72
2018-04-09T13:27:58.052Z,61.40
2018-04-09T13:29:00.580Z,62.10
2018-04-09T13:30:03.112Z,70.60